Time;durP1;ratioP1;P1;durP2;ratioP2;P2;SDS_P1;SDS_P2;PMS_P1;PMS_P2;Temp;Humidity;BMP_temperature;BMP_pressure;BME280_temperature;BME280_humidity;BME280_pressure;Samples;Min_cycle;Max_cycle;Signal;HPM_P1;HPM_P2
2024/01/30 11:56:54;;;;;;;0.70;0.63;;;11.90;99.90;;;;;;4988717;28;20455;-80
2024/01/30 12:09:27;;;;;;;3.57;2.03;;;11.80;99.90;;;;;;4987952;28;20420;-82
2024/01/30 12:11:56;;;;;;;1.10;1.10;;;11.80;99.90;;;;;;4996785;28;20464;-85
2024/01/30 12:14:25;;;;;;;1.10;0.77;;;11.80;99.90;;;;;;4998071;28;20452;-83
2024/01/30 12:16:51;;;;;;;4.50;1.97;;;11.90;99.90;;;;;;4995135;28;20451;-84
2024/01/30 12:19:24;;;;;;;0.60;0.60;;;11.90;99.90;;;;;;4998273;28;20482;-83
2024/01/30 12:21:56;;;;;;;25.13;3.67;;;11.90;99.90;;;;;;4995985;28;20460;-83
2024/01/30 12:24:24;;;;;;;0.50;0.50;;;11.90;99.90;;;;;;4995124;28;20495;-82
2024/01/30 12:26:51;;;;;;;0.50;0.40;;;12.00;99.90;;;;;;4995154;28;20993;-84
2024/01/30 12:29:21;;;;;;;1.93;0.90;;;12.00;99.90;;;;;;4995987;28;20522;-83
2024/01/30 12:31:48;;;;;;;2.67;2.10;;;11.90;99.90;;;;;;4995908;28;20436;-83
2024/01/30 12:34:16;;;;;;;0.50;0.40;;;11.90;99.90;;;;;;4995961;28;20444;-82
2024/01/30 12:36:43;;;;;;;11.37;2.90;;;11.90;99.90;;;;;;4996667;28;20437;-83
2024/01/30 12:42:32;;;;;;;1.07;0.80;;;11.80;99.90;;;;;;4988378;28;20420;-84
2024/01/30 12:45:01;;;;;;;2.40;1.43;;;11.80;99.90;;;;;;4997014;28;20436;-84
2024/01/30 12:47:27;;;;;;;2.33;2.13;;;11.90;99.90;;;;;;4987939;28;20531;-82
2024/01/30 12:49:54;;;;;;;2.30;1.73;;;11.90;99.90;;;;;;4996696;28;20439;-81
2024/01/30 12:52:23;;;;;;;8.43;3.03;;;11.90;99.90;;;;;;4995900;28;20464;-84
2024/01/30 12:54:49;;;;;;;2.80;2.33;;;11.80;99.90;;;;;;4996034;28;20453;-82
2024/01/30 12:57:17;;;;;;;5.13;1.20;;;11.90;99.90;;;;;;4996964;28;20448;-80
2024/01/30 12:59:44;;;;;;;1.17;1.10;;;11.90;99.90;;;;;;4995199;28;20839;-82
2024/01/30 13:02:13;;;;;;;12.13;1.73;;;11.90;99.90;;;;;;4995345;28;20463;-82
2024/01/30 13:04:40;;;;;;;0.50;0.40;;;11.90;99.90;;;;;;4994770;28;20799;-82
2024/01/30 13:07:07;;;;;;;3.23;2.30;;;11.90;99.90;;;;;;4995290;28;20463;-82
2024/01/30 13:09:34;;;;;;;8.27;2.70;;;11.90;99.90;;;;;;4994741;28;20444;-82
2024/01/30 13:12:01;;;;;;;7.13;2.00;;;11.80;99.90;;;;;;4994640;28;20471;-82
2024/01/30 13:14:28;;;;;;;3.50;3.20;;;11.80;99.90;;;;;;4988090;28;20428;-81
2024/01/30 13:16:54;;;;;;;2.83;2.50;;;11.80;99.90;;;;;;4994850;28;20437;-82
2024/01/30 13:19:22;;;;;;;6.73;2.10;;;11.80;99.90;;;;;;4994371;28;21021;-85
2024/01/30 13:21:49;;;;;;;2.83;1.60;;;11.80;99.90;;;;;;4995492;28;20997;-83
2024/01/30 13:24:16;;;;;;;1.10;1.10;;;11.80;99.90;;;;;;4995615;28;20477;-82
2024/01/30 13:26:44;;;;;;;2.67;2.47;;;11.80;99.90;;;;;;4995963;28;20943;-84
2024/01/30 13:29:10;;;;;;;1.50;1.40;;;11.80;99.90;;;;;;4995821;28;20442;-85
2024/01/30 13:31:37;;;;;;;7.73;3.23;;;11.80;99.90;;;;;;4996070;28;20936;-83
2024/01/30 13:34:04;;;;;;;0.70;0.70;;;11.80;99.90;;;;;;4995417;28;20527;-82
2024/01/30 13:36:32;;;;;;;1.73;1.03;;;11.80;99.90;;;;;;4995206;28;20785;-82
2024/01/30 13:38:59;;;;;;;4.57;3.00;;;11.80;99.90;;;;;;4994256;28;20472;-85
2024/01/30 13:41:26;;;;;;;3.17;1.73;;;11.80;99.90;;;;;;4996511;28;20440;-85
2024/01/30 13:43:53;;;;;;;2.80;2.00;;;11.80;99.90;;;;;;4993478;28;20456;-83
2024/01/30 13:46:21;;;;;;;1.90;1.13;;;11.80;99.90;;;;;;4993071;28;20811;-83
2024/01/30 13:48:47;;;;;;;1.23;0.93;;;11.80;99.90;;;;;;4994140;28;20800;-83
2024/01/30 13:51:16;;;;;;;4.90;3.13;;;11.80;99.90;;;;;;4993276;28;20444;-84
2024/01/30 13:53:44;;;;;;;2.53;2.10;;;11.80;99.90;;;;;;4994157;28;20492;-83
2024/01/30 13:56:11;;;;;;;2.60;1.67;;;11.80;99.90;;;;;;4994545;28;20446;-84
2024/01/30 13:58:38;;;;;;;1.03;0.60;;;11.80;99.90;;;;;;4993037;28;20591;-84
2024/01/30 14:01:05;;;;;;;1.83;1.60;;;11.80;99.90;;;;;;4995754;28;20436;-83
2024/01/30 14:03:32;;;;;;;11.00;1.20;;;11.80;99.90;;;;;;4989054;28;20518;-83
2024/01/30 14:05:59;;;;;;;1.60;1.30;;;11.90;99.90;;;;;;4996515;28;20432;-84
2024/01/30 14:08:28;;;;;;;2.40;2.20;;;11.90;99.90;;;;;;4993581;28;20807;-84
2024/01/30 14:10:56;;;;;;;9.90;5.30;;;11.90;99.90;;;;;;4994338;28;20436;-85
2024/01/30 14:13:24;;;;;;;2.20;1.67;;;11.90;99.90;;;;;;4993754;28;20511;-84
2024/01/30 14:15:51;;;;;;;0.80;0.80;;;12.00;99.90;;;;;;4994727;28;20448;-84
2024/01/30 14:18:18;;;;;;;0.50;0.40;;;12.20;99.90;;;;;;4994753;28;20487;-84
2024/01/30 14:20:45;;;;;;;1.77;1.37;;;12.20;99.90;;;;;;4994212;28;20437;-85
2024/01/30 14:23:11;;;;;;;4.63;3.03;;;12.30;99.90;;;;;;4995883;28;20827;-84
2024/01/30 14:25:38;;;;;;;0.70;0.70;;;12.30;99.90;;;;;;4997340;28;20440;-82
2024/01/30 14:28:07;;;;;;;1.40;1.30;;;12.30;99.90;;;;;;4996983;28;20467;-85
2024/01/30 14:30:34;;;;;;;3.40;2.10;;;12.40;99.90;;;;;;4989583;28;20443;-84
2024/01/30 14:33:00;;;;;;;6.13;1.83;;;12.30;99.90;;;;;;4997093;28;20511;-84
2024/01/30 14:35:27;;;;;;;2.60;2.40;;;12.20;99.90;;;;;;4996643;28;20435;-85
2024/01/30 14:37:54;;;;;;;1.37;1.23;;;12.20;99.90;;;;;;4996747;28;20462;-84
2024/01/30 14:40:21;;;;;;;2.10;1.47;;;12.20;99.90;;;;;;4996571;28;20484;-85
2024/01/30 14:42:48;;;;;;;2.80;2.10;;;12.20;99.90;;;;;;4997251;28;20807;-85
2024/01/30 14:45:16;;;;;;;7.47;3.03;;;12.10;99.90;;;;;;4996856;28;20726;-85
2024/01/30 14:47:43;;;;;;;5.13;3.27;;;12.10;99.90;;;;;;4996709;28;20934;-85
2024/01/30 14:50:10;;;;;;;4.63;3.03;;;12.10;99.90;;;;;;4997303;28;20435;-84
2024/01/30 14:52:39;;;;;;;5.50;2.73;;;12.00;99.90;;;;;;4995984;28;20456;-84
2024/01/30 14:55:07;;;;;;;1.73;1.37;;;12.00;99.90;;;;;;4996121;28;20943;-85
2024/01/30 14:57:34;;;;;;;0.87;0.50;;;12.00;99.90;;;;;;4996615;28;20463;-85
2024/01/30 15:00:01;;;;;;;1.40;1.00;;;12.00;99.90;;;;;;4997086;28;20563;-84
2024/01/30 15:02:29;;;;;;;7.30;1.40;;;12.00;99.90;;;;;;4997343;28;20456;-84
2024/01/30 15:04:56;;;;;;;5.33;3.53;;;11.90;99.90;;;;;;4997826;28;20447;-85
2024/01/30 15:07:23;;;;;;;2.07;1.43;;;11.80;99.90;;;;;;4997342;28;20452;-85
2024/01/30 15:09:49;;;;;;;1.80;0.93;;;11.80;99.90;;;;;;4996058;28;20437;-85
2024/01/30 15:12:16;;;;;;;0.50;0.50;;;11.70;99.90;;;;;;4996850;28;20460;-85
2024/01/30 15:14:50;;;;;;;0.80;0.70;;;11.70;99.90;;;;;;4996692;28;20439;-84
2024/01/30 15:17:32;;;;;;;1.70;1.60;;;11.70;99.90;;;;;;4955180;29;20923;-84
2024/01/30 15:20:00;;;;;;;0.60;0.60;;;11.60;99.90;;;;;;4954957;29;20518;-85
2024/01/30 15:22:26;;;;;;;0.60;0.60;;;11.50;99.90;;;;;;4955091;28;20897;-84
2024/01/30 15:24:53;;;;;;;0.93;0.90;;;11.40;99.90;;;;;;4954881;29;20457;-85
2024/01/30 15:27:20;;;;;;;0.57;0.53;;;11.40;99.90;;;;;;4955385;28;20450;-85
2024/01/30 15:29:47;;;;;;;0.50;0.40;;;11.30;99.90;;;;;;4954999;28;20540;-84
2024/01/30 15:32:13;;;;;;;0.50;0.40;;;11.30;99.90;;;;;;4954618;28;20485;-85
2024/01/30 15:34:41;;;;;;;0.90;0.90;;;11.30;99.90;;;;;;4957897;28;20972;-85
2024/01/30 15:37:08;;;;;;;0.50;0.40;;;11.30;99.90;;;;;;4995947;28;20444;-84
2024/01/30 15:39:35;;;;;;;0.50;0.40;;;11.20;99.90;;;;;;4996016;28;20487;-84
2024/01/30 15:42:02;;;;;;;1.07;0.97;;;11.20;99.90;;;;;;4994953;28;20461;-85
2024/01/30 15:44:30;;;;;;;1.70;0.93;;;11.10;99.90;;;;;;4995219;28;20440;-85
2024/01/30 15:46:58;;;;;;;0.50;0.50;;;11.00;99.90;;;;;;4995445;28;20494;-85
2024/01/30 15:49:25;;;;;;;0.50;0.40;;;11.00;99.90;;;;;;4995705;28;20440;-85
2024/01/30 15:51:53;;;;;;;0.50;0.40;;;11.00;99.90;;;;;;4995778;28;20440;-85
2024/01/30 15:54:22;;;;;;;0.60;0.50;;;11.00;99.90;;;;;;4995867;28;20927;-84
2024/01/30 15:56:48;;;;;;;0.50;0.40;;;10.90;99.90;;;;;;4995960;28;20531;-85
2024/01/30 15:59:15;;;;;;;0.50;0.40;;;10.90;99.90;;;;;;4997745;28;20491;-86
2024/01/30 16:01:47;;;;;;;0.50;0.40;;;10.90;99.90;;;;;;4995006;28;20436;-85
2024/01/30 16:04:14;;;;;;;0.50;0.40;;;10.90;99.90;;;;;;4995803;28;20476;-84
2024/01/30 16:06:42;;;;;;;0.50;0.40;;;10.80;99.90;;;;;;4994934;28;20432;-81
2024/01/30 16:09:10;;;;;;;0.50;0.40;;;10.80;99.90;;;;;;4995148;28;20205;-85
2024/01/30 16:11:38;;;;;;;0.50;0.40;;;10.70;99.90;;;;;;4994620;28;20433;-85
2024/01/30 16:14:05;;;;;;;0.50;0.40;;;10.70;99.90;;;;;;4996211;28;20547;-83
2024/01/30 16:16:32;;;;;;;0.50;0.40;;;10.60;99.90;;;;;;4995471;28;20432;-84
2024/01/30 16:18:59;;;;;;;0.50;0.40;;;10.60;99.90;;;;;;4994416;28;20209;-83
2024/01/30 16:21:25;;;;;;;0.50;0.40;;;10.50;99.90;;;;;;4994985;28;20485;-85
2024/01/30 16:23:53;;;;;;;0.50;0.40;;;10.40;99.90;;;;;;4996943;28;20467;-84
2024/01/30 16:26:22;;;;;;;0.50;0.40;;;10.30;99.90;;;;;;4999893;28;20201;-84
2024/01/30 16:28:48;;;;;;;0.50;0.40;;;10.20;99.90;;;;;;4996678;28;20233;-83
2024/01/30 16:31:19;;;;;;;0.50;0.40;;;10.10;99.90;;;;;;4996119;28;20792;-82
2024/01/30 16:33:46;;;;;;;0.50;0.40;;;10.10;99.90;;;;;;4998063;28;20627;-82
2024/01/30 16:36:13;;;;;;;0.70;0.70;;;10.00;99.90;;;;;;4998247;28;20197;-83
2024/01/30 16:38:40;;;;;;;0.50;0.40;;;9.90;99.90;;;;;;4996750;28;20193;-82
2024/01/30 16:41:07;;;;;;;0.50;0.40;;;9.90;99.90;;;;;;4997083;28;20216;-80
2024/01/30 16:43:35;;;;;;;0.60;0.40;;;9.80;99.90;;;;;;4996348;28;20223;-83
2024/01/30 16:46:02;;;;;;;0.50;0.40;;;9.80;99.90;;;;;;4996028;28;20197;-84
2024/01/30 16:48:28;;;;;;;0.68;0.68;;;9.80;99.90;;;;;;4996266;28;20201;-82
2024/01/30 16:50:55;;;;;;;0.50;0.40;;;9.80;99.90;;;;;;4997505;28;20577;-82
2024/01/30 16:53:22;;;;;;;0.50;0.50;;;9.80;99.90;;;;;;4997461;28;20217;-82
2024/01/30 16:55:49;;;;;;;2.20;2.10;;;9.90;99.90;;;;;;4997817;28;20672;-83
2024/01/30 16:58:15;;;;;;;0.50;0.40;;;10.00;99.90;;;;;;4997122;28;20452;-83
2024/01/30 17:00:43;;;;;;;0.50;0.40;;;10.00;99.90;;;;;;4997771;28;20480;-81
2024/01/30 17:03:10;;;;;;;0.50;0.40;;;10.10;99.90;;;;;;4999111;28;20279;-83
2024/01/30 17:05:37;;;;;;;1.15;0.70;;;10.10;99.90;;;;;;4991720;28;20656;-84
2024/01/30 17:08:04;;;;;;;0.63;0.63;;;10.10;99.90;;;;;;4997298;28;20212;-82
2024/01/30 17:10:31;;;;;;;0.50;0.40;;;10.10;99.90;;;;;;4999843;28;20204;-83
2024/01/30 17:12:59;;;;;;;0.50;0.40;;;10.10;99.90;;;;;;5008134;28;20231;-84
2024/01/30 17:15:26;;;;;;;0.50;0.50;;;10.10;99.90;;;;;;5005561;28;20204;-83
2024/01/30 17:17:54;;;;;;;0.50;0.40;;;10.10;99.90;;;;;;5000877;28;20193;-83
2024/01/30 17:20:22;;;;;;;1.63;1.23;;;10.10;99.90;;;;;;4997443;28;20219;-83
2024/01/30 17:22:49;;;;;;;3.90;0.68;;;10.10;99.90;;;;;;4995841;28;20244;-83
2024/01/30 17:25:16;;;;;;;0.50;0.40;;;10.00;99.90;;;;;;4997207;28;20208;-83
2024/01/30 17:27:44;;;;;;;0.50;0.40;;;10.00;99.90;;;;;;4995346;28;20200;-82
2024/01/30 17:30:13;;;;;;;1.00;0.70;;;10.00;99.90;;;;;;5003610;28;20441;-82
2024/01/30 17:32:40;;;;;;;0.60;0.52;;;9.90;99.90;;;;;;5005586;28;20476;-81
2024/01/30 17:35:09;;;;;;;0.50;0.40;;;9.90;99.90;;;;;;5001114;28;20200;-83
2024/01/30 17:37:38;;;;;;;0.60;0.50;;;9.80;99.90;;;;;;4996241;28;20440;-83
2024/01/30 17:40:05;;;;;;;0.50;0.40;;;9.80;99.90;;;;;;4996087;28;21008;-83
2024/01/30 17:42:32;;;;;;;0.77;0.77;;;9.80;99.90;;;;;;4997117;28;20217;-82
2024/01/30 17:44:59;;;;;;;1.42;1.33;;;9.70;99.90;;;;;;4997677;28;20209;-82
2024/01/30 17:47:26;;;;;;;0.77;0.70;;;9.60;99.90;;;;;;4996853;28;20263;-83
2024/01/30 17:49:53;;;;;;;3.80;1.85;;;9.50;99.90;;;;;;4996239;28;20189;-83
2024/01/30 17:52:21;;;;;;;1.10;0.85;;;9.40;99.90;;;;;;4998947;28;20247;-82
2024/01/30 17:54:48;;;;;;;0.50;0.40;;;9.30;99.90;;;;;;5001120;28;20565;-83
2024/01/30 17:57:15;;;;;;;0.50;0.40;;;9.30;99.90;;;;;;4995317;28;20452;-83
2024/01/30 17:59:43;;;;;;;0.50;0.50;;;9.20;99.90;;;;;;4997324;28;20295;-82
2024/01/30 18:02:09;;;;;;;0.50;0.40;;;9.20;99.90;;;;;;4995874;28;20309;-84
2024/01/30 18:04:39;;;;;;;0.50;0.40;;;9.10;99.90;;;;;;4997993;28;20204;-82
2024/01/30 18:07:06;;;;;;;4.13;2.30;;;9.10;99.90;;;;;;4997493;28;20198;-83
2024/01/30 18:09:34;;;;;;;0.50;0.40;;;9.10;99.90;;;;;;4997929;28;20445;-83
2024/01/30 18:12:01;;;;;;;0.60;0.55;;;9.10;99.90;;;;;;4996779;28;20228;-82
2024/01/30 18:14:28;;;;;;;0.60;0.50;;;9.00;99.90;;;;;;4996268;28;20332;-83
2024/01/30 18:16:55;;;;;;;0.50;0.45;;;9.00;99.90;;;;;;4996404;28;20667;-83
2024/01/30 18:19:22;;;;;;;0.77;0.55;;;9.00;99.90;;;;;;4994813;28;20291;-83
2024/01/30 18:21:48;;;;;;;1.50;1.40;;;9.00;99.90;;;;;;4994011;28;20194;-83
2024/01/30 18:24:15;;;;;;;1.20;1.20;;;9.00;99.90;;;;;;4994775;28;20200;-82
2024/01/30 18:26:43;;;;;;;0.50;0.40;;;9.00;99.90;;;;;;4994258;28;20207;-79
2024/01/30 18:29:10;;;;;;;0.50;0.50;;;9.00;99.90;;;;;;4993412;28;20659;-82
2024/01/30 18:31:41;;;;;;;0.50;0.40;;;8.90;99.90;;;;;;4992418;28;20204;-82
2024/01/30 18:34:07;;;;;;;0.50;0.50;;;9.00;99.90;;;;;;4993550;28;20214;-82
2024/01/30 18:36:36;;;;;;;0.57;0.50;;;9.00;99.90;;;;;;4992788;28;20204;-83
2024/01/30 18:39:04;;;;;;;0.70;0.60;;;9.00;99.90;;;;;;4992525;28;20189;-83
2024/01/30 18:41:31;;;;;;;0.50;0.40;;;9.00;99.90;;;;;;4992918;28;20695;-82
2024/01/30 18:44:01;;;;;;;0.50;0.40;;;9.00;99.90;;;;;;4992180;28;20224;-83
2024/01/30 18:46:28;;;;;;;0.60;0.55;;;8.90;99.90;;;;;;4992400;28;20292;-82
2024/01/30 18:48:55;;;;;;;0.50;0.50;;;8.90;99.90;;;;;;4991800;28;20679;-82
2024/01/30 18:51:22;;;;;;;0.90;0.60;;;8.90;99.90;;;;;;4991914;28;20301;-82
2024/01/30 18:53:48;;;;;;;0.65;0.60;;;8.90;99.90;;;;;;4991923;28;20209;-83
2024/01/30 18:56:17;;;;;;;1.30;1.30;;;8.90;99.90;;;;;;4992139;28;20205;-83
2024/01/30 18:58:44;;;;;;;0.50;0.40;;;8.90;99.90;;;;;;4983966;28;20206;-83
2024/01/30 19:01:12;;;;;;;0.70;0.68;;;8.90;99.90;;;;;;4991555;28;20247;-82
2024/01/30 19:03:39;;;;;;;0.50;0.45;;;8.90;99.90;;;;;;4991707;28;20213;-80
2024/01/30 19:06:06;;;;;;;0.50;0.40;;;8.90;99.90;;;;;;4991740;28;20671;-83
2024/01/30 19:08:33;;;;;;;0.50;0.50;;;8.90;99.90;;;;;;4993087;28;20197;-82
2024/01/30 19:10:59;;;;;;;0.50;0.50;;;8.90;99.90;;;;;;4995124;28;20189;-82
2024/01/30 19:13:26;;;;;;;0.50;0.40;;;8.90;99.90;;;;;;4995154;28;20287;-83
2024/01/30 19:15:54;;;;;;;0.50;0.40;;;8.90;99.90;;;;;;4995226;28;20193;-83
2024/01/30 19:18:22;;;;;;;0.50;0.40;;;8.90;99.90;;;;;;4995503;28;20212;-83
2024/01/30 19:20:49;;;;;;;1.25;0.70;;;8.80;99.90;;;;;;4996113;28;20213;-81
2024/01/30 19:23:17;;;;;;;0.82;0.65;;;8.80;99.90;;;;;;5014601;28;20731;-81
2024/01/30 19:25:44;;;;;;;0.50;0.50;;;8.80;99.90;;;;;;5011016;28;20205;-81
2024/01/30 19:28:12;;;;;;;0.50;0.40;;;8.70;99.90;;;;;;5017840;28;20226;-84
2024/01/30 19:30:38;;;;;;;0.80;0.80;;;8.70;99.90;;;;;;5018340;28;20201;-83
2024/01/30 19:33:05;;;;;;;0.65;0.65;;;8.70;99.90;;;;;;5001084;28;20213;-84
2024/01/30 19:35:34;;;;;;;0.50;0.40;;;8.70;99.90;;;;;;5000860;28;20220;-84
2024/01/30 19:38:01;;;;;;;5.18;2.15;;;8.70;99.90;;;;;;4999422;28;20668;-84
2024/01/30 19:40:28;;;;;;;0.80;0.70;;;8.70;99.90;;;;;;4999118;28;20213;-84
2024/01/30 19:42:55;;;;;;;1.48;1.40;;;8.70;99.90;;;;;;5008802;28;20232;-84
2024/01/30 19:45:21;;;;;;;1.48;0.98;;;8.60;99.90;;;;;;5019199;28;20190;-84
2024/01/30 19:47:48;;;;;;;1.27;0.60;;;8.60;99.90;;;;;;5010939;28;20186;-83
2024/01/30 19:50:15;;;;;;;0.50;0.40;;;8.60;99.90;;;;;;5000961;28;20194;-84
2024/01/30 19:52:44;;;;;;;0.50;0.50;;;8.60;99.90;;;;;;5000764;28;20212;-84
2024/01/30 19:55:11;;;;;;;0.77;0.77;;;8.60;99.90;;;;;;5001458;28;20196;-83
2024/01/30 19:57:38;;;;;;;1.70;1.60;;;8.60;99.90;;;;;;5001375;28;20255;-83
2024/01/30 20:00:06;;;;;;;0.50;0.40;;;8.60;99.90;;;;;;5001873;28;20217;-83
2024/01/30 20:02:32;;;;;;;0.50;0.40;;;8.60;99.90;;;;;;5000217;28;20217;-82
2024/01/30 20:04:59;;;;;;;6.82;2.33;;;8.60;99.90;;;;;;5002454;28;20571;-84
2024/01/30 20:07:26;;;;;;;11.10;8.40;;;8.50;99.90;;;;;;5005840;28;20193;-83
2024/01/30 20:09:54;;;;;;;0.50;0.40;;;8.50;99.90;;;;;;5003495;28;20556;-83
2024/01/30 20:12:21;;;;;;;1.00;0.82;;;8.40;99.90;;;;;;4999933;28;20217;-83
2024/01/30 20:14:48;;;;;;;2.22;2.00;;;8.30;99.90;;;;;;5000471;28;20217;-83
2024/01/30 20:17:15;;;;;;;0.50;0.40;;;8.30;99.90;;;;;;5001688;28;20198;-83
2024/01/30 20:19:44;;;;;;;0.70;0.70;;;8.30;99.90;;;;;;4999970;28;20193;-84
2024/01/30 20:22:11;;;;;;;1.77;1.63;;;8.20;99.90;;;;;;5000021;28;20718;-84
2024/01/30 20:24:37;;;;;;;2.67;1.83;;;8.20;99.90;;;;;;5000793;28;20193;-84
2024/01/30 20:27:06;;;;;;;0.75;0.75;;;8.20;99.90;;;;;;5000676;28;20194;-84
2024/01/30 20:29:33;;;;;;;0.77;0.75;;;8.20;99.90;;;;;;5000903;28;20228;-84
2024/01/30 20:32:00;;;;;;;1.38;1.30;;;8.20;99.90;;;;;;5003754;28;20215;-84
2024/01/30 20:34:27;;;;;;;0.50;0.40;;;8.20;99.90;;;;;;5015856;28;20180;-82
2024/01/30 20:36:53;;;;;;;0.50;0.50;;;8.20;99.90;;;;;;5015958;28;20199;-82
2024/01/30 20:39:20;;;;;;;1.38;1.10;;;8.20;99.90;;;;;;5005401;28;20240;-84
2024/01/30 20:41:48;;;;;;;0.70;0.52;;;8.20;99.90;;;;;;4991291;28;20713;-84
2024/01/30 20:44:18;;;;;;;0.50;0.50;;;8.20;99.90;;;;;;4999268;28;20204;-84
2024/01/30 20:46:44;;;;;;;0.50;0.40;;;8.20;99.90;;;;;;4998245;28;20193;-80
2024/01/30 20:49:11;;;;;;;13.23;1.50;;;8.20;99.90;;;;;;4998100;28;20664;-84
2024/01/30 20:51:38;;;;;;;0.82;0.82;;;8.20;99.90;;;;;;4998986;28;20192;-83
2024/01/30 20:54:05;;;;;;;0.50;0.40;;;8.30;99.90;;;;;;4999830;28;20200;-83
2024/01/30 20:56:31;;;;;;;0.50;0.50;;;8.30;99.90;;;;;;4999016;28;20205;-84
2024/01/30 20:58:59;;;;;;;1.48;1.38;;;8.20;99.90;;;;;;4992055;28;20211;-84
2024/01/30 21:01:27;;;;;;;0.50;0.40;;;8.20;99.90;;;;;;4998830;28;20223;-84
2024/01/30 21:03:54;;;;;;;2.55;1.95;;;8.20;99.90;;;;;;4998758;28;20213;-84
2024/01/30 21:06:20;;;;;;;6.07;3.17;;;8.20;99.90;;;;;;4998862;28;20193;-84
2024/01/30 21:08:47;;;;;;;0.50;0.40;;;8.10;99.90;;;;;;4991039;28;20197;-81
2024/01/30 21:11:14;;;;;;;9.20;2.28;;;8.10;99.90;;;;;;4998628;28;20194;-83
2024/01/30 21:13:41;;;;;;;0.65;0.63;;;8.10;99.90;;;;;;4998207;28;20592;-82
2024/01/30 21:16:07;;;;;;;0.50;0.40;;;8.10;99.90;;;;;;4999056;28;20201;-84
2024/01/30 21:18:36;;;;;;;0.50;0.50;;;8.10;99.90;;;;;;4997504;28;20197;-83
2024/01/30 21:21:03;;;;;;;2.83;2.47;;;8.10;99.90;;;;;;4997902;28;20224;-84
2024/01/30 21:23:29;;;;;;;0.50;0.40;;;8.10;99.90;;;;;;4997427;28;20587;-83
2024/01/30 21:25:57;;;;;;;5.65;4.20;;;8.10;99.90;;;;;;4997304;28;20201;-83
2024/01/30 21:28:24;;;;;;;1.95;1.40;;;8.00;99.90;;;;;;4997413;28;20205;-83
2024/01/30 21:30:51;;;;;;;8.05;1.77;;;8.00;99.90;;;;;;4997890;28;20193;-81
2024/01/30 21:33:18;;;;;;;0.85;0.85;;;8.00;99.90;;;;;;4997279;28;20239;-84
2024/01/30 21:35:46;;;;;;;5.38;1.48;;;8.00;99.90;;;;;;4997006;28;20201;-83
2024/01/30 21:38:14;;;;;;;0.93;0.70;;;8.10;99.90;;;;;;4997011;28;20193;-83
2024/01/30 21:40:41;;;;;;;0.95;0.95;;;8.10;99.90;;;;;;4997294;28;20213;-84
2024/01/30 21:43:08;;;;;;;0.50;0.40;;;8.10;99.90;;;;;;4996633;28;20219;-84
2024/01/30 21:45:35;;;;;;;3.22;3.00;;;8.10;99.90;;;;;;4997388;28;20203;-83
2024/01/30 21:48:01;;;;;;;0.50;0.40;;;8.10;99.90;;;;;;4996162;28;20657;-83
2024/01/30 21:50:28;;;;;;;1.60;1.50;;;8.10;99.90;;;;;;4996355;28;20200;-83
2024/01/30 21:52:56;;;;;;;0.52;0.52;;;8.10;99.90;;;;;;4997237;28;20223;-83
2024/01/30 21:55:23;;;;;;;0.50;0.40;;;8.10;99.90;;;;;;4996723;28;20576;-85
2024/01/30 21:57:50;;;;;;;2.72;1.67;;;8.00;99.90;;;;;;4996435;28;20201;-85
2024/01/30 22:00:17;;;;;;;3.05;2.80;;;8.00;99.90;;;;;;4997337;28;20203;-84
2024/01/30 22:02:43;;;;;;;0.55;0.55;;;8.00;99.90;;;;;;4996992;28;20596;-84
2024/01/30 22:05:10;;;;;;;1.88;1.48;;;8.00;99.90;;;;;;4997074;28;20205;-85
2024/01/30 22:07:37;;;;;;;0.98;0.98;;;7.90;99.90;;;;;;4997027;28;20197;-84
2024/01/30 22:10:06;;;;;;;1.88;1.25;;;7.90;99.90;;;;;;4996812;28;20189;-84
2024/01/30 22:12:33;;;;;;;2.35;2.25;;;7.90;99.90;;;;;;4996886;28;20240;-85
2024/01/30 22:15:00;;;;;;;1.10;1.00;;;7.90;99.90;;;;;;4997356;28;20207;-85
2024/01/30 22:17:27;;;;;;;0.60;0.50;;;7.80;99.90;;;;;;4997154;28;20197;-84
2024/01/30 22:19:55;;;;;;;1.10;0.90;;;7.90;99.90;;;;;;4997321;28;20197;-85
2024/01/30 22:22:22;;;;;;;1.90;1.80;;;7.90;99.90;;;;;;4996432;28;20225;-85
2024/01/30 22:24:49;;;;;;;0.50;0.40;;;7.90;99.90;;;;;;4997075;28;20200;-84
2024/01/30 22:27:18;;;;;;;0.50;0.40;;;7.90;99.90;;;;;;4996704;28;20280;-85
2024/01/30 22:29:45;;;;;;;3.08;2.78;;;7.90;99.90;;;;;;4997435;28;20224;-85
2024/01/30 22:32:12;;;;;;;0.50;0.40;;;7.90;99.90;;;;;;4996712;28;20595;-85
2024/01/30 22:34:38;;;;;;;2.45;2.35;;;7.80;99.90;;;;;;4996953;28;20208;-84
2024/01/30 22:37:06;;;;;;;0.57;0.55;;;7.80;99.90;;;;;;4996624;28;20270;-85
2024/01/30 22:39:31;;;;;;;4.93;4.50;;;7.90;99.90;;;;;;4996711;28;20197;-85
2024/01/30 22:41:58;;;;;;;0.50;0.40;;;7.80;99.90;;;;;;4996099;28;20227;-85
2024/01/30 22:44:26;;;;;;;0.60;0.60;;;7.80;99.90;;;;;;4998626;28;20208;-85
2024/01/30 22:46:53;;;;;;;1.08;0.68;;;7.80;99.90;;;;;;4992452;28;20205;-85
2024/01/30 22:49:20;;;;;;;0.50;0.40;;;7.80;99.90;;;;;;5000639;28;20201;-85
2024/01/30 22:51:48;;;;;;;0.50;0.40;;;7.80;99.90;;;;;;4999731;28;20676;-85
2024/01/30 22:54:16;;;;;;;2.25;1.50;;;7.70;99.90;;;;;;4999827;28;20197;-84
2024/01/30 22:56:43;;;;;;;16.60;2.70;;;7.70;99.90;;;;;;5000245;28;20220;-85
2024/01/30 22:59:10;;;;;;;1.73;1.60;;;7.70;99.90;;;;;;4999983;28;20219;-84
2024/01/30 23:01:39;;;;;;;0.50;0.40;;;7.70;99.90;;;;;;4999610;28;20228;-84
2024/01/30 23:04:06;;;;;;;6.20;2.72;;;7.70;99.90;;;;;;4999892;28;20197;-84
2024/01/30 23:06:33;;;;;;;2.97;2.78;;;7.60;99.90;;;;;;4999856;28;20197;-84
2024/01/30 23:09:00;;;;;;;4.05;2.78;;;7.60;99.90;;;;;;4999601;28;20205;-84
2024/01/30 23:11:26;;;;;;;0.70;0.70;;;7.60;99.90;;;;;;4998950;28;20229;-84
2024/01/30 23:13:53;;;;;;;0.50;0.40;;;7.60;99.90;;;;;;4990994;28;20584;-84
2024/01/30 23:16:20;;;;;;;0.50;0.40;;;7.60;99.90;;;;;;5000231;28;20208;-84
2024/01/30 23:18:49;;;;;;;0.60;0.60;;;7.50;99.90;;;;;;4999340;28;20207;-84
2024/01/30 23:21:17;;;;;;;0.50;0.40;;;7.50;99.90;;;;;;4999312;28;20245;-84
2024/01/30 23:23:44;;;;;;;1.70;1.58;;;7.50;99.90;;;;;;4998814;28;20221;-83
2024/01/30 23:26:11;;;;;;;0.60;0.60;;;7.50;99.90;;;;;;4999380;28;20201;-84
2024/01/30 23:28:37;;;;;;;1.35;1.15;;;7.50;99.90;;;;;;4998873;28;20221;-84
2024/01/30 23:31:04;;;;;;;0.60;0.50;;;7.50;99.90;;;;;;4998374;28;20189;-82
2024/01/30 23:33:31;;;;;;;0.50;0.40;;;7.50;99.90;;;;;;4997871;28;20221;-83
2024/01/30 23:35:59;;;;;;;5.68;2.55;;;7.50;99.90;;;;;;4998257;28;20204;-83
2024/01/30 23:38:26;;;;;;;1.35;1.25;;;7.40;99.90;;;;;;4999029;28;20672;-84
2024/01/30 23:40:53;;;;;;;0.60;0.50;;;7.40;99.90;;;;;;5001278;28;20578;-81
2024/01/30 23:43:20;;;;;;;1.00;0.95;;;7.40;99.90;;;;;;5015275;28;20363;-84
2024/01/30 23:45:46;;;;;;;0.50;0.40;;;7.40;99.90;;;;;;5016652;28;20201;-83
2024/01/30 23:48:13;;;;;;;1.23;1.13;;;7.40;99.90;;;;;;5005595;28;20208;-84
2024/01/30 23:50:40;;;;;;;0.50;0.50;;;7.40;99.90;;;;;;4999640;28;20208;-84
2024/01/30 23:53:08;;;;;;;0.50;0.40;;;7.40;99.90;;;;;;4998294;28;20227;-84
2024/01/30 23:55:35;;;;;;;4.75;2.63;;;7.30;99.90;;;;;;4997825;28;20201;-84
2024/01/30 23:58:01;;;;;;;0.50;0.40;;;7.40;99.90;;;;;;4998300;28;20684;-84
